Irini K — SV3235 — position and weather

sailwx.info

Track history (hours):
 
Tides and Currents Weather Stations Pressure Air Temp Water Temp Dewpoint Dewpoint Depression Visibility Wind Speed Wind Dir Waves Ship Positions

Irini K

Last reported at 2018-Jul-21 02:43 UTC. Time now 2018-Jul-21 22:51 UTC.
Position N 38°10' E 024°12'.

Length 62 m; draft 2 m.

MMSI: 237111800.

Date/timePositionNaut miles runAvg speedWind from/ knotsBaromVisibWave heightAir tempDewpointWater temp
2018-Jul-21 02:43N 38°10' E 024°12'2 8.4
2018-Jul-21 02:30N 38°09' E 024°11'5 8.6
2018-Jul-21 01:52N 38°03' E 024°10'7 0.3
2018-Jul-20 02:38N 38°10' E 024°12'2 8.3
2018-Jul-20 02:25N 38°09' E 024°11'4 8.3
2018-Jul-20 01:57N 38°05' E 024°10'6 0.2
2018-Jul-19 03:09N 38°10' E 024°12'2 7.8
2018-Jul-19 02:56N 38°09' E 024°11'4 7.9
2018-Jul-19 02:27N 38°05' E 024°10'4 0.3
2018-Jul-18 15:24N 38°09' E 024°11'2 1.6
2018-Jul-18 14:13N 38°10' E 024°12'6 7.8
2018-Jul-18 13:25N 38°04' E 024°10'6 0.6
2018-Jul-18 02:54N 38°10' E 024°12'5 8.0
2018-Jul-18 02:15N 38°05' E 024°10'3 0.2
2018-Jul-17 11:43N 38°08' E 024°11'0 0.0
2018-Jul-16 10:33N 38°09' E 024°11'2 0.2
2018-Jul-16 02:46N 38°10' E 024°12'7 8.1
2018-Jul-16 01:58N 38°04' E 024°10'30 1.8
2018-Jul-15 09:29N 37°39' E 023°49'4 8.7
2018-Jul-15 09:00N 37°39' E 023°44'4 8.6
2018-Jul-15 08:30N 37°43' E 023°41'5 9.1
2018-Jul-15 08:00N 37°47' E 023°38'5 9.0
2018-Jul-15 07:30N 37°51' E 023°36'5 9.2
2018-Jul-15 07:00N 37°55' E 023°35'4 7.6
2018-Jul-15 06:30N 37°59' E 023°33'3 6.4
2018-Jul-15 06:00N 38°02' E 023°33'0 0.0
2018-Jul-15 05:30N 38°02' E 023°33'0 0.0
2018-Jul-15 05:00N 38°02' E 023°33'0 0.0
2018-Jul-15 04:30N 38°02' E 023°33'0 0.0
2018-Jul-15 04:00N 38°02' E 023°33'3 5.5
2018-Jul-15 03:30N 37°59' E 023°33'3 6.8
2018-Jul-15 03:00N 37°56' E 023°35'4 8.5
2018-Jul-15 02:30N 37°53' E 023°38'4 8.6
2018-Jul-15 02:00N 37°49' E 023°40'4 8.5
2018-Jul-15 01:30N 37°45' E 023°43'4 8.6
2018-Jul-15 01:00N 37°42' E 023°46'6 0.1
2018-Jul-13 00:21N 37°37' E 023°49'3 8.5
2018-Jul-12 23:59N 37°38' E 023°46'4 8.5
2018-Jul-12 23:31N 37°41' E 023°42'4 8.4
2018-Jul-12 23:00N 37°45' E 023°39'4 8.3
2018-Jul-12 22:31N 37°48' E 023°35'4 8.4
2018-Jul-12 22:00N 37°50' E 023°31'4 8.4
2018-Jul-12 21:30N 37°52' E 023°26'4 7.7
2018-Jul-12 21:00N 37°55' E 023°23'4 7.6
2018-Jul-12 20:30N 37°58' E 023°25'3 6.4
2018-Jul-12 20:00N 38°01' E 023°28'4 8.1
2018-Jul-12 19:30N 38°02' E 023°33'0 0.3
2018-Jul-12 18:55N 38°02' E 023°33'0 0.0
2018-Jul-12 18:30N 38°02' E 023°33'0 0.0
2018-Jul-12 17:59N 38°02' E 023°33'0 0.0
2018-Jul-12 17:30N 38°02' E 023°33'3 7.0
2018-Jul-12 17:00N 37°59' E 023°33'4 7.4
2018-Jul-12 16:30N 37°56' E 023°35'4 8.8
2018-Jul-12 16:00N 37°52' E 023°38'4 8.8
2018-Jul-12 15:30N 37°48' E 023°41'4 9.0
2018-Jul-12 15:01N 37°44' E 023°44'4 8.5
2018-Jul-12 14:29N 37°41' E 023°47'  
Track history (hours):
 
Tides and Currents Weather Stations Pressure Air Temp Water Temp Dewpoint Dewpoint Depression Visibility Wind Speed Wind Dir Waves Ship Positions

Irini K

Last reported at 2018-Jul-21 02:43 UTC. Time now 2018-Jul-21 22:51 UTC.
Position N 38°10' E 024°12'.

Length 62 m; draft 2 m.

MMSI: 237111800.

Date/timePositionNaut miles runAvg speedWind from/ knotsBaromVisibWave heightAir tempDewpointWater temp
2018-Jul-21 02:43N 38°10' E 024°12'2 8.4
2018-Jul-21 02:30N 38°09' E 024°11'5 8.6
2018-Jul-21 01:52N 38°03' E 024°10'7 0.3
2018-Jul-20 02:38N 38°10' E 024°12'2 8.3
2018-Jul-20 02:25N 38°09' E 024°11'4 8.3
2018-Jul-20 01:57N 38°05' E 024°10'6 0.2
2018-Jul-19 03:09N 38°10' E 024°12'2 7.8
2018-Jul-19 02:56N 38°09' E 024°11'4 7.9
2018-Jul-19 02:27N 38°05' E 024°10'4 0.3
2018-Jul-18 15:24N 38°09' E 024°11'2 1.6
2018-Jul-18 14:13N 38°10' E 024°12'6 7.8
2018-Jul-18 13:25N 38°04' E 024°10'6 0.6
2018-Jul-18 02:54N 38°10' E 024°12'5 8.0
2018-Jul-18 02:15N 38°05' E 024°10'3 0.2
2018-Jul-17 11:43N 38°08' E 024°11'0 0.0
2018-Jul-16 10:33N 38°09' E 024°11'2 0.2
2018-Jul-16 02:46N 38°10' E 024°12'7 8.1
2018-Jul-16 01:58N 38°04' E 024°10'30 1.8
2018-Jul-15 09:29N 37°39' E 023°49'4 8.7
2018-Jul-15 09:00N 37°39' E 023°44'4 8.6
2018-Jul-15 08:30N 37°43' E 023°41'5 9.1
2018-Jul-15 08:00N 37°47' E 023°38'5 9.0
2018-Jul-15 07:30N 37°51' E 023°36'5 9.2
2018-Jul-15 07:00N 37°55' E 023°35'4 7.6
2018-Jul-15 06:30N 37°59' E 023°33'3 6.4
2018-Jul-15 06:00N 38°02' E 023°33'0 0.0
2018-Jul-15 05:30N 38°02' E 023°33'0 0.0
2018-Jul-15 05:00N 38°02' E 023°33'0 0.0
2018-Jul-15 04:30N 38°02' E 023°33'0 0.0
2018-Jul-15 04:00N 38°02' E 023°33'3 5.5
2018-Jul-15 03:30N 37°59' E 023°33'3 6.8
2018-Jul-15 03:00N 37°56' E 023°35'4 8.5
2018-Jul-15 02:30N 37°53' E 023°38'4 8.6
2018-Jul-15 02:00N 37°49' E 023°40'4 8.5
2018-Jul-15 01:30N 37°45' E 023°43'4 8.6
2018-Jul-15 01:00N 37°42' E 023°46'6 0.1
2018-Jul-13 00:21N 37°37' E 023°49'3 8.5
2018-Jul-12 23:59N 37°38' E 023°46'4 8.5
2018-Jul-12 23:31N 37°41' E 023°42'4 8.4
2018-Jul-12 23:00N 37°45' E 023°39'4 8.3
2018-Jul-12 22:31N 37°48' E 023°35'4 8.4
2018-Jul-12 22:00N 37°50' E 023°31'4 8.4
2018-Jul-12 21:30N 37°52' E 023°26'4 7.7
2018-Jul-12 21:00N 37°55' E 023°23'4 7.6
2018-Jul-12 20:30N 37°58' E 023°25'3 6.4
2018-Jul-12 20:00N 38°01' E 023°28'4 8.1
2018-Jul-12 19:30N 38°02' E 023°33'0 0.3
2018-Jul-12 18:55N 38°02' E 023°33'0 0.0
2018-Jul-12 18:30N 38°02' E 023°33'0 0.0
2018-Jul-12 17:59N 38°02' E 023°33'0 0.0
2018-Jul-12 17:30N 38°02' E 023°33'3 7.0
2018-Jul-12 17:00N 37°59' E 023°33'4 7.4
2018-Jul-12 16:30N 37°56' E 023°35'4 8.8
2018-Jul-12 16:00N 37°52' E 023°38'4 8.8
2018-Jul-12 15:30N 37°48' E 023°41'4 9.0
2018-Jul-12 15:01N 37°44' E 023°44'4 8.5
2018-Jul-12 14:29N 37°41' E 023°47'  

Dump ship's entire track history